Greifswald — 3FEC8 — position and weather

sailwx.info

Track history (hours):
 
Tides and Currents Weather Stations Pressure Air Temp Water Temp Dewpoint Dewpoint Depression Visibility Wind Speed Wind Dir Waves Ship Positions

Greifswald

Last reported at 2015-May-25 03:27 UTC. Time now 2015-May-25 07:30 UTC.
Position N 46°20' E 030°40'.

Length 191 m; draft 6.3 m.

Type: Ship. MMSI: 370492000.

Date/timePositionNaut miles runAvg speedWind from/ knotsBaromVisibWave heightAir tempDewpointWater temp
2015-May-25 03:27N 46°20' E 030°40'12 8.8
2015-May-25 02:04N 46°17' E 030°57'713.4
2015-May-25 01:30N 46°12' E 031°05'1313.4
2015-May-25 00:32N 46°02' E 031°18'1413.4
2015-May-24 23:30N 45°52' E 031°31'1313.5
2015-May-24 22:33N 45°43' E 031°43'1413.5
2015-May-24 21:33N 45°33' E 031°57'6813.5
2015-May-24 16:32N 44°41' E 032°59'5713.6
2015-May-24 12:23N 44°05' E 033°60'1214.6
2015-May-24 11:33N 43°60' E 034°15'1614.3
2015-May-24 10:25N 43°54' E 034°36'1214.1
2015-May-24 09:33N 43°49' E 034°51'1814.0
2015-May-24 08:17N 43°41' E 035°14'1013.9
2015-May-24 07:33N 43°38' E 035°27'  
2015-May-21 16:27N 43°31' E 035°37'1213.3
2015-May-21 15:33N 43°36' E 035°22'1313.0
2015-May-21 14:33N 43°41' E 035°05'1312.5
2015-May-21 13:32N 43°46' E 034°49'1212.2
2015-May-21 12:33N 43°51' E 034°34'1211.7
2015-May-21 11:33N 43°56' E 034°19'1611.6
2015-May-21 10:11N 44°02' E 033°59'5212.8
2015-May-21 06:07N 44°35' E 033°03'913.0
2015-May-21 05:27N 44°42' E 032°55'121 4.3
2015-May-20 01:31N 46°13' E 031°02'1010.6
2015-May-20 00:33N 46°06' E 031°12'1111.0
2015-May-19 23:33N 45°58' E 031°23'1110.8
2015-May-19 22:33N 45°50' E 031°33'1110.8
2015-May-19 21:33N 45°42' E 031°44'1111.0
2015-May-19 20:33N 45°34' E 031°55'1211.0
2015-May-19 19:27N 45°25' E 032°05'5511.2
2015-May-19 14:33N 44°44' E 032°56'6011.9
2015-May-19 09:33N 44°04' E 033°60'1110.3
2015-May-19 08:28N 44°00' E 034°14'7 7.5
2015-May-19 07:33N 43°58' E 034°23'8 7.6
2015-May-19 06:33N 43°54' E 034°33'8 7.8
2015-May-19 05:31N 43°51' E 034°43'7 7.6
2015-May-19 04:33N 43°48' E 034°52'7 7.5
2015-May-19 03:33N 43°45' E 035°02'8 7.6
2015-May-19 02:33N 43°42' E 035°11'7 7.5
2015-May-19 01:33N 43°40' E 035°21'7 7.3
2015-May-19 00:33N 43°37' E 035°30'7 7.0
2015-May-18 23:33N 43°34' E 035°39'7 6.7
2015-May-18 22:33N 43°31' E 035°48'7 6.7
2015-May-18 21:33N 43°29' E 035°56'7 6.8
2015-May-18 20:33N 43°26' E 036°05'7 7.0
2015-May-18 19:33N 43°23' E 036°13'7 7.0
2015-May-18 18:33N 43°20' E 036°22'7 6.9
2015-May-18 17:33N 43°18' E 036°31'7 6.8
2015-May-18 16:33N 43°15' E 036°40'7 6.5
2015-May-18 15:33N 43°13' E 036°48'7 6.5
2015-May-18 14:33N 43°10' E 036°56'7 6.7
2015-May-18 13:33N 43°07' E 037°04'9 6.8
2015-May-18 12:14N 43°03' E 037°16'5 6.9
2015-May-18 11:33N 43°02' E 037°22'7 7.0
2015-May-18 10:33N 42°59' E 037°30'7 7.1
2015-May-18 09:33N 42°56' E 037°39'7 7.2
2015-May-18 08:33N 42°53' E 037°48'7 7.3
2015-May-18 07:32N 42°51' E 037°58'1212.1
2015-May-18 06:33N 42°46' E 038°13'1212.3
2015-May-18 05:33N 42°41' E 038°28'1212.4
2015-May-18 04:33N 42°36' E 038°43'1312.6
2015-May-18 03:33N 42°31' E 038°59'1312.6
2015-May-18 02:33N 42°26' E 039°15'1212.1
2015-May-18 01:33N 42°21' E 039°30'  
2015-May-15 21:20N 42°34' E 036°03'3913.5
2015-May-15 18:27N 42°44' E 035°11'1213.2
2015-May-15 17:33N 42°47' E 034°56'1413.6
2015-May-15 16:33N 42°50' E 034°38'1413.6
2015-May-15 15:33N 42°54' E 034°20'  
Track history (hours):
 
Tides and Currents Weather Stations Pressure Air Temp Water Temp Dewpoint Dewpoint Depression Visibility Wind Speed Wind Dir Waves Ship Positions

Greifswald

Last reported at 2015-May-25 03:27 UTC. Time now 2015-May-25 07:30 UTC.
Position N 46°20' E 030°40'.

Length 191 m; draft 6.3 m.

Type: Ship. MMSI: 370492000.

Date/timePositionNaut miles runAvg speedWind from/ knotsBaromVisibWave heightAir tempDewpointWater temp
2015-May-25 03:27N 46°20' E 030°40'12 8.8
2015-May-25 02:04N 46°17' E 030°57'713.4
2015-May-25 01:30N 46°12' E 031°05'1313.4
2015-May-25 00:32N 46°02' E 031°18'1413.4
2015-May-24 23:30N 45°52' E 031°31'1313.5
2015-May-24 22:33N 45°43' E 031°43'1413.5
2015-May-24 21:33N 45°33' E 031°57'6813.5
2015-May-24 16:32N 44°41' E 032°59'5713.6
2015-May-24 12:23N 44°05' E 033°60'1214.6
2015-May-24 11:33N 43°60' E 034°15'1614.3
2015-May-24 10:25N 43°54' E 034°36'1214.1
2015-May-24 09:33N 43°49' E 034°51'1814.0
2015-May-24 08:17N 43°41' E 035°14'1013.9
2015-May-24 07:33N 43°38' E 035°27'  
2015-May-21 16:27N 43°31' E 035°37'1213.3
2015-May-21 15:33N 43°36' E 035°22'1313.0
2015-May-21 14:33N 43°41' E 035°05'1312.5
2015-May-21 13:32N 43°46' E 034°49'1212.2
2015-May-21 12:33N 43°51' E 034°34'1211.7
2015-May-21 11:33N 43°56' E 034°19'1611.6
2015-May-21 10:11N 44°02' E 033°59'5212.8
2015-May-21 06:07N 44°35' E 033°03'913.0
2015-May-21 05:27N 44°42' E 032°55'121 4.3
2015-May-20 01:31N 46°13' E 031°02'1010.6
2015-May-20 00:33N 46°06' E 031°12'1111.0
2015-May-19 23:33N 45°58' E 031°23'1110.8
2015-May-19 22:33N 45°50' E 031°33'1110.8
2015-May-19 21:33N 45°42' E 031°44'1111.0
2015-May-19 20:33N 45°34' E 031°55'1211.0
2015-May-19 19:27N 45°25' E 032°05'5511.2
2015-May-19 14:33N 44°44' E 032°56'6011.9
2015-May-19 09:33N 44°04' E 033°60'1110.3
2015-May-19 08:28N 44°00' E 034°14'7 7.5
2015-May-19 07:33N 43°58' E 034°23'8 7.6
2015-May-19 06:33N 43°54' E 034°33'8 7.8
2015-May-19 05:31N 43°51' E 034°43'7 7.6
2015-May-19 04:33N 43°48' E 034°52'7 7.5
2015-May-19 03:33N 43°45' E 035°02'8 7.6
2015-May-19 02:33N 43°42' E 035°11'7 7.5
2015-May-19 01:33N 43°40' E 035°21'7 7.3
2015-May-19 00:33N 43°37' E 035°30'7 7.0
2015-May-18 23:33N 43°34' E 035°39'7 6.7
2015-May-18 22:33N 43°31' E 035°48'7 6.7
2015-May-18 21:33N 43°29' E 035°56'7 6.8
2015-May-18 20:33N 43°26' E 036°05'7 7.0
2015-May-18 19:33N 43°23' E 036°13'7 7.0
2015-May-18 18:33N 43°20' E 036°22'7 6.9
2015-May-18 17:33N 43°18' E 036°31'7 6.8
2015-May-18 16:33N 43°15' E 036°40'7 6.5
2015-May-18 15:33N 43°13' E 036°48'7 6.5
2015-May-18 14:33N 43°10' E 036°56'7 6.7
2015-May-18 13:33N 43°07' E 037°04'9 6.8
2015-May-18 12:14N 43°03' E 037°16'5 6.9
2015-May-18 11:33N 43°02' E 037°22'7 7.0
2015-May-18 10:33N 42°59' E 037°30'7 7.1
2015-May-18 09:33N 42°56' E 037°39'7 7.2
2015-May-18 08:33N 42°53' E 037°48'7 7.3
2015-May-18 07:32N 42°51' E 037°58'1212.1
2015-May-18 06:33N 42°46' E 038°13'1212.3
2015-May-18 05:33N 42°41' E 038°28'1212.4
2015-May-18 04:33N 42°36' E 038°43'1312.6
2015-May-18 03:33N 42°31' E 038°59'1312.6
2015-May-18 02:33N 42°26' E 039°15'1212.1
2015-May-18 01:33N 42°21' E 039°30'  
2015-May-15 21:20N 42°34' E 036°03'3913.5
2015-May-15 18:27N 42°44' E 035°11'1213.2
2015-May-15 17:33N 42°47' E 034°56'1413.6
2015-May-15 16:33N 42°50' E 034°38'1413.6
2015-May-15 15:33N 42°54' E 034°20'  

Dump ship's entire track history